METAR AND TAF INFORMATION
METAR FOR KJFK
ADDS - METARS form results

(1625 UTC 22 April 2018)
Data provider http://aviationweather.gov/adds/metars/
 
METAR text: KJFK 221551Z 20007KT 10SM FEW250 14/M06 A3041 RMK AO2 SLP296 T01441061
Conditions at: KJFK (NYC/JFK ARPT , NY, US) observed 1551 UTC 22 April 2018
Temperature: 14.4°C (58°F)
Dewpoint: -6.1°C (21°F) [RH = 24%]
Pressure (altimeter): 30.41 inches Hg (1029.9 mb)
[Sea-level pressure: 1029.6 mb]
Winds: from the SSW (200 degrees) at 8 MPH (7 knots; 3.6 m/s)
Visibility: 10 or more miles (16+ km)
Ceiling: at least 12,000 feet AGL
Clouds: few clouds at 25000 feet AGL
Weather: no significant weather observed at this time

Forecast for: KJFK (NYC/JFK ARPT , NY, US)
Text: KJFK 221559Z 2216/2318 22007KT P6SM FEW250
Forecast period: 1600 to 1800 UTC 22 April 2018
Forecast type: FROM: standard forecast or significant change
Winds: from the SW (220 degrees) at 8 MPH (7 knots; 3.6 m/s)
Visibility: 6 or more miles (10+ km)
Clouds: few clouds at 25000 feet AGL
Weather: no significant weather forecast for this period
Forecast for: KJFK (NYC/JFK ARPT , NY, US)
Text: KJFK 221559Z 2216/2318 22007KT P6SM FEW250
Forecast period: 1600 to 1800 UTC 22 April 2018
Forecast type: FROM: standard forecast or significant change
Winds: from the SW (220 degrees) at 8 MPH (7 knots; 3.6 m/s)
Visibility: 6 or more miles (10+ km)
Clouds: few clouds at 25000 feet AGL
Weather: no significant weather forecast for this period
Forecast for: KJFK (NYC/JFK ARPT , NY, US)
Text: KJFK 221559Z 2216/2318 22007KT P6SM FEW250
Forecast period: 1800 to 2100 UTC 22 April 2018
Forecast type: FROM: standard forecast or significant change
Winds: from the S (190 degrees) at 14 MPH (12 knots; 6.2 m/s)
Visibility: 6 or more miles (10+ km)
Clouds: few clouds at 6000 feet AGL
Weather: no significant weather forecast for this period
Forecast for: KJFK (NYC/JFK ARPT , NY, US)
Text: KJFK 221559Z 2216/2318 22007KT P6SM FEW250
Forecast period: 1800 to 2100 UTC 22 April 2018
Forecast type: FROM: standard forecast or significant change
Winds: from the S (190 degrees) at 14 MPH (12 knots; 6.2 m/s)
Visibility: 6 or more miles (10+ km)
Clouds: few clouds at 6000 feet AGL
Weather: no significant weather forecast for this period
Forecast for: KJFK (NYC/JFK ARPT , NY, US)
Text: KJFK 221559Z 2216/2318 22007KT P6SM FEW250
Forecast period: 2100 UTC 22 April 2018 to 0000 UTC 23 April 2018
Forecast type: FROM: standard forecast or significant change
Winds: from the S (180 degrees) at 16 MPH (14 knots; 7.3 m/s)
Visibility: 6 or more miles (10+ km)
Clouds: few clouds at 6000 feet AGL
Weather: no significant weather forecast for this period
Forecast for: KJFK (NYC/JFK ARPT , NY, US)
Text: KJFK 221559Z 2216/2318 22007KT P6SM FEW250
Forecast period: 2100 UTC 22 April 2018 to 0000 UTC 23 April 2018
Forecast type: FROM: standard forecast or significant change
Winds: from the S (180 degrees) at 16 MPH (14 knots; 7.3 m/s)
Visibility: 6 or more miles (10+ km)
Clouds: few clouds at 6000 feet AGL
Weather: no significant weather forecast for this period
Forecast for: KJFK (NYC/JFK ARPT , NY, US)
Text: KJFK 221559Z 2216/2318 22007KT P6SM FEW250
Forecast period: 0000 to 0200 UTC 23 April 2018
Forecast type: FROM: standard forecast or significant change
Winds: from the S (190 degrees) at 12 MPH (10 knots; 5.2 m/s)
Visibility: 6 or more miles (10+ km)
Clouds: few clouds at 6000 feet AGL
Weather: no significant weather forecast for this period
Forecast for: KJFK (NYC/JFK ARPT , NY, US)
Text: KJFK 221559Z 2216/2318 22007KT P6SM FEW250
Forecast period: 0000 to 0200 UTC 23 April 2018
Forecast type: FROM: standard forecast or significant change
Winds: from the S (190 degrees) at 12 MPH (10 knots; 5.2 m/s)
Visibility: 6 or more miles (10+ km)
Clouds: few clouds at 6000 feet AGL
Weather: no significant weather forecast for this period
Forecast for: KJFK (NYC/JFK ARPT , NY, US)
Text: KJFK 221559Z 2216/2318 22007KT P6SM FEW250
Forecast period: 0200 to 1400 UTC 23 April 2018
Forecast type: FROM: standard forecast or significant change
Winds: variable direction winds at 6 MPH (5 knots; 2.6 m/s)
Visibility: 6 or more miles (10+ km)
Clouds: clear skies
Weather: no significant weather forecast for this period
Forecast for: KJFK (NYC/JFK ARPT , NY, US)
Text: KJFK 221559Z 2216/2318 22007KT P6SM FEW250
Forecast period: 0200 to 1400 UTC 23 April 2018
Forecast type: FROM: standard forecast or significant change
Winds: variable direction winds at 6 MPH (5 knots; 2.6 m/s)
Visibility: 6 or more miles (10+ km)
Clouds: clear skies
Weather: no significant weather forecast for this period
Forecast for: KJFK (NYC/JFK ARPT , NY, US)
Text: KJFK 221559Z 2216/2318 22007KT P6SM FEW250
Forecast period: 1400 to 1800 UTC 23 April 2018
Forecast type: FROM: standard forecast or significant change
Winds: from the SE (140 degrees) at 9 MPH (8 knots; 4.2 m/s)
Visibility: 6 or more miles (10+ km)
Clouds: clear skies
Weather: no significant weather forecast for this period
Forecast for: KJFK (NYC/JFK ARPT , NY, US)
Text: KJFK 221559Z 2216/2318 22007KT P6SM FEW250
Forecast period: 1400 to 1800 UTC 23 April 2018
Forecast type: FROM: standard forecast or significant change
Winds: from the SE (140 degrees) at 9 MPH (8 knots; 4.2 m/s)
Visibility: 6 or more miles (10+ km)
Clouds: clear skies
Weather: no significant weather forecast for this period

 AIRPORT MAP

 RUNWAY INFORMATION
Runway 04L Runway length 11351 ft Runway width 150 ft
Runway elevation 12 ft Runway displaced threshold 0 ft Runway heading 31
Runway 22R Runway length 11351 ft Runway width 150 ft
Runway elevation 13 ft Runway displaced threshold 2696 ft Runway heading 211
Runway 04R Runway length 8400 ft Runway width 200 ft
Runway elevation 13 ft Runway displaced threshold 0 ft Runway heading 31
Runway 22L Runway length 8400 ft Runway width 200 ft
Runway elevation 13 ft Runway displaced threshold 0 ft Runway heading 211
Runway 13L Runway length 10000 ft Runway width 150 ft
Runway elevation 13 ft Runway displaced threshold 905 ft Runway heading 121
Runway 31R Runway length 10000 ft Runway width 150 ft
Runway elevation 13 ft Runway displaced threshold 1030 ft Runway heading 301
Runway 13R Runway length 14572 ft Runway width 150 ft
Runway elevation 13 ft Runway displaced threshold 2606 ft Runway heading 121
Runway 31L Runway length 14572 ft Runway width 150 ft
Runway elevation 13 ft Runway displaced threshold 3324 ft Runway heading 301

 AIRPORT FREQUENCIES
Type APP Name NEW YORK A Frequency 125.7 MHZ
Type APP Name NEW YORK A Frequency 127.4 MHZ
Type APP Name NEW YORK A Frequency 132.4 MHZ
Type ATIS Name ATIS Frequency 115.1 MHZ
Type CLD Name CLNC DEL Frequency 135.05 MHZ
Type DEP Name NEW YORK D Frequency 135.9 MHZ
Type GND Name GND Frequency 121.9 MHZ
Type RDO Name NEW YORK R Frequency 115.9 MHZ
Type TWR Name KENNEDY TW Frequency 119.1 MHZ
Type UNIC Name UNICOM Frequency 122.95 MHZ

 AIRPORT NEAR NAVIGATION AIDS
Type VOR-DME Name Canarsie Frequency 112300 KHZ
Type VOR-DME Name Kennedy Frequency 115900 KHZ



Powered by Virtual Airlines Manager [v2.6.2]